Inebolu — 9HA4359 — position and weather

sailwx.info

Track history (hours):
 
Tides and Currents Weather Stations Pressure Air Temp Water Temp Dewpoint Dewpoint Depression Visibility Wind Speed Wind Dir Waves Ship Positions

Inebolu

Last reported at 2017-Nov-17 19:30 UTC. Time now 2017-Nov-23 11:14 UTC.
Position N 37°33' W 000°59'.

Length 103 m; draft 7.2 m.

Type: Tanker. MMSI: 249732000.

Date/timePositionNaut miles runAvg speedWind from/ knotsBaromVisibWave heightAir tempDewpointWater temp
2017-Nov-17 19:30N 37°33' W 000°59'612.0
2017-Nov-17 19:00N 37°29' W 000°54'612.1
2017-Nov-17 18:30N 37°29' W 000°46'912.4
2017-Nov-17 17:46N 37°30' W 000°35'412.7
2017-Nov-17 17:29N 37°31' W 000°30'44312.3
2017-Nov-16 05:36N 38°43' E 008°45'312.2
2017-Nov-16 05:23N 38°43' E 008°48'18311.6
2017-Nov-15 13:34N 38°28' E 012°42'111.6
2017-Nov-15 13:28N 38°27' E 012°43'511.7
2017-Nov-15 13:00N 38°27' E 012°50'611.6
2017-Nov-15 12:30N 38°27' E 012°58'611.7
2017-Nov-15 12:00N 38°26' E 013°05'611.5
2017-Nov-15 11:30N 38°26' E 013°13'611.3
2017-Nov-15 11:00N 38°26' E 013°20'611.4
2017-Nov-15 10:30N 38°26' E 013°27'611.5
2017-Nov-15 10:00N 38°25' E 013°34'611.7
2017-Nov-15 09:30N 38°25' E 013°42'612.1
2017-Nov-15 09:00N 38°25' E 013°49'611.7
2017-Nov-15 08:30N 38°24' E 013°57'711.8
2017-Nov-15 07:56N 38°24' E 014°06'1711.8
2017-Nov-15 06:30N 38°22' E 014°27'812.2
2017-Nov-15 05:52N 38°22' E 014°37'512.1
2017-Nov-15 05:29N 38°21' E 014°43'612.1
2017-Nov-15 05:00N 38°21' E 014°50'612.1
2017-Nov-15 04:30N 38°20' E 014°58'612.0
2017-Nov-15 04:00N 38°20' E 015°05'611.8
2017-Nov-15 03:30N 38°21' E 015°13'611.8
2017-Nov-15 03:00N 38°22' E 015°20'612.0
2017-Nov-15 02:30N 38°23' E 015°28'611.6
2017-Nov-15 02:00N 38°23' E 015°35'612.0
2017-Nov-15 01:30N 38°19' E 015°41'510.1
2017-Nov-15 01:00N 38°15' E 015°39'611.8
2017-Nov-15 00:30N 38°09' E 015°37'611.1
2017-Nov-15 00:00N 38°04' E 015°36'611.8
2017-Nov-14 23:30N 37°58' E 015°36'611.6
2017-Nov-14 23:00N 37°53' E 015°41'612.1
2017-Nov-14 22:29N 37°51' E 015°49'611.8
2017-Nov-14 22:00N 37°49' E 015°56'711.6
2017-Nov-14 21:25N 37°48' E 016°04'  
Track history (hours):
 
Tides and Currents Weather Stations Pressure Air Temp Water Temp Dewpoint Dewpoint Depression Visibility Wind Speed Wind Dir Waves Ship Positions

Inebolu

Last reported at 2017-Nov-17 19:30 UTC. Time now 2017-Nov-23 11:14 UTC.
Position N 37°33' W 000°59'.

Length 103 m; draft 7.2 m.

Type: Tanker. MMSI: 249732000.

Date/timePositionNaut miles runAvg speedWind from/ knotsBaromVisibWave heightAir tempDewpointWater temp
2017-Nov-17 19:30N 37°33' W 000°59'612.0
2017-Nov-17 19:00N 37°29' W 000°54'612.1
2017-Nov-17 18:30N 37°29' W 000°46'912.4
2017-Nov-17 17:46N 37°30' W 000°35'412.7
2017-Nov-17 17:29N 37°31' W 000°30'44312.3
2017-Nov-16 05:36N 38°43' E 008°45'312.2
2017-Nov-16 05:23N 38°43' E 008°48'18311.6
2017-Nov-15 13:34N 38°28' E 012°42'111.6
2017-Nov-15 13:28N 38°27' E 012°43'511.7
2017-Nov-15 13:00N 38°27' E 012°50'611.6
2017-Nov-15 12:30N 38°27' E 012°58'611.7
2017-Nov-15 12:00N 38°26' E 013°05'611.5
2017-Nov-15 11:30N 38°26' E 013°13'611.3
2017-Nov-15 11:00N 38°26' E 013°20'611.4
2017-Nov-15 10:30N 38°26' E 013°27'611.5
2017-Nov-15 10:00N 38°25' E 013°34'611.7
2017-Nov-15 09:30N 38°25' E 013°42'612.1
2017-Nov-15 09:00N 38°25' E 013°49'611.7
2017-Nov-15 08:30N 38°24' E 013°57'711.8
2017-Nov-15 07:56N 38°24' E 014°06'1711.8
2017-Nov-15 06:30N 38°22' E 014°27'812.2
2017-Nov-15 05:52N 38°22' E 014°37'512.1
2017-Nov-15 05:29N 38°21' E 014°43'612.1
2017-Nov-15 05:00N 38°21' E 014°50'612.1
2017-Nov-15 04:30N 38°20' E 014°58'612.0
2017-Nov-15 04:00N 38°20' E 015°05'611.8
2017-Nov-15 03:30N 38°21' E 015°13'611.8
2017-Nov-15 03:00N 38°22' E 015°20'612.0
2017-Nov-15 02:30N 38°23' E 015°28'611.6
2017-Nov-15 02:00N 38°23' E 015°35'612.0
2017-Nov-15 01:30N 38°19' E 015°41'510.1
2017-Nov-15 01:00N 38°15' E 015°39'611.8
2017-Nov-15 00:30N 38°09' E 015°37'611.1
2017-Nov-15 00:00N 38°04' E 015°36'611.8
2017-Nov-14 23:30N 37°58' E 015°36'611.6
2017-Nov-14 23:00N 37°53' E 015°41'612.1
2017-Nov-14 22:29N 37°51' E 015°49'611.8
2017-Nov-14 22:00N 37°49' E 015°56'711.6
2017-Nov-14 21:25N 37°48' E 016°04'  

Dump ship's entire track history